sensor_id;sensor_type;location;lat;lon;timestamp;pressure;altitude;pressure_sealevel;temperature;humidity
60705;BME280;46545;38.014;-7.874;2024-03-17T00:01:04;99337.41;;;18.14;100.00
60705;BME280;46545;38.014;-7.874;2024-03-17T00:03:04;99346.13;;;18.11;100.00
60705;BME280;46545;38.014;-7.874;2024-03-17T00:05:06;99343.69;;;18.10;100.00
60705;BME280;46545;38.014;-7.874;2024-03-17T00:07:06;99336.41;;;18.05;100.00
60705;BME280;46545;38.014;-7.874;2024-03-17T00:09:08;99338.53;;;18.08;100.00
60705;BME280;46545;38.014;-7.874;2024-03-17T00:11:09;99342.63;;;18.11;100.00
60705;BME280;46545;38.014;-7.874;2024-03-17T00:13:10;99334.75;;;18.09;100.00
60705;BME280;46545;38.014;-7.874;2024-03-17T00:15:11;99331.19;;;18.14;100.00
60705;BME280;46545;38.014;-7.874;2024-03-17T00:17:11;99329.84;;;18.11;100.00
60705;BME280;46545;38.014;-7.874;2024-03-17T00:19:12;99324.72;;;18.10;100.00
60705;BME280;46545;38.014;-7.874;2024-03-17T00:21:13;99318.22;;;18.06;100.00
60705;BME280;46545;38.014;-7.874;2024-03-17T00:23:16;99315.25;;;18.07;100.00
60705;BME280;46545;38.014;-7.874;2024-03-17T00:25:17;99315.78;;;18.04;100.00
60705;BME280;46545;38.014;-7.874;2024-03-17T00:27:22;99314.19;;;18.03;100.00
60705;BME280;46545;38.014;-7.874;2024-03-17T00:29:23;99304.41;;;18.07;100.00
60705;BME280;46545;38.014;-7.874;2024-03-17T00:31:23;99311.22;;;18.05;100.00
60705;BME280;46545;38.014;-7.874;2024-03-17T00:33:24;99308.78;;;18.03;100.00
60705;BME280;46545;38.014;-7.874;2024-03-17T00:35:25;99307.97;;;18.03;100.00
60705;BME280;46545;38.014;-7.874;2024-03-17T00:37:26;99312.56;;;18.02;100.00
60705;BME280;46545;38.014;-7.874;2024-03-17T00:39:26;99301.19;;;18.00;100.00
60705;BME280;46545;38.014;-7.874;2024-03-17T00:41:27;99300.38;;;18.00;100.00
60705;BME280;46545;38.014;-7.874;2024-03-17T00:43:28;99300.91;;;18.02;100.00
60705;BME280;46545;38.014;-7.874;2024-03-17T00:45:28;99290.94;;;17.97;100.00
60705;BME280;46545;38.014;-7.874;2024-03-17T00:47:29;99287.69;;;17.95;100.00
60705;BME280;46545;38.014;-7.874;2024-03-17T00:49:30;99291.47;;;17.94;100.00
60705;BME280;46545;38.014;-7.874;2024-03-17T00:51:30;99290.16;;;17.91;100.00
60705;BME280;46545;38.014;-7.874;2024-03-17T00:53:31;99288.56;;;17.90;100.00
60705;BME280;46545;38.014;-7.874;2024-03-17T00:55:32;99286.63;;;17.91;100.00
60705;BME280;46545;38.014;-7.874;2024-03-17T00:57:33;99289.63;;;17.89;100.00
60705;BME280;46545;38.014;-7.874;2024-03-17T00:59:33;99283.69;;;17.87;100.00
60705;BME280;46545;38.014;-7.874;2024-03-17T01:01:34;99288.03;;;17.88;100.00
60705;BME280;46545;38.014;-7.874;2024-03-17T01:03:34;99287.72;;;17.90;100.00
60705;BME280;46545;38.014;-7.874;2024-03-17T01:05:38;99277.13;;;17.93;100.00
60705;BME280;46545;38.014;-7.874;2024-03-17T01:07:42;99285.25;;;17.93;100.00
60705;BME280;46545;38.014;-7.874;2024-03-17T01:09:43;99281.47;;;17.94;100.00
60705;BME280;46545;38.014;-7.874;2024-03-17T01:11:43;99274.13;;;17.95;100.00
60705;BME280;46545;38.014;-7.874;2024-03-17T01:13:45;99270.56;;;18.00;100.00
60705;BME280;46545;38.014;-7.874;2024-03-17T01:15:51;99274.91;;;18.01;100.00
60705;BME280;46545;38.014;-7.874;2024-03-17T01:17:52;99273.56;;;17.98;100.00
60705;BME280;46545;38.014;-7.874;2024-03-17T01:19:53;99272.19;;;18.01;100.00
60705;BME280;46545;38.014;-7.874;2024-03-17T01:21:53;99271.88;;;18.02;100.00
60705;BME280;46545;38.014;-7.874;2024-03-17T01:23:54;99272.47;;;17.99;100.00
60705;BME280;46545;38.014;-7.874;2024-03-17T01:25:54;99266.53;;;17.97;100.00
60705;BME280;46545;38.014;-7.874;2024-03-17T01:27:55;99266.25;;;17.99;100.00
60705;BME280;46545;38.014;-7.874;2024-03-17T01:29:56;99271.94;;;17.97;100.00
60705;BME280;46545;38.014;-7.874;2024-03-17T01:31:57;99269.47;;;18.01;100.00
60705;BME280;46545;38.014;-7.874;2024-03-17T01:33:57;99266.25;;;17.99;100.00
60705;BME280;46545;38.014;-7.874;2024-03-17T01:35:58;99262.75;;;17.93;100.00
60705;BME280;46545;38.014;-7.874;2024-03-17T01:37:59;99265.22;;;17.89;100.00
60705;BME280;46545;38.014;-7.874;2024-03-17T01:39:59;99260.59;;;17.90;100.00
60705;BME280;46545;38.014;-7.874;2024-03-17T01:42:00;99255.72;;;17.92;100.00
60705;BME280;46545;38.014;-7.874;2024-03-17T01:44:01;99258.41;;;17.92;100.00
60705;BME280;46545;38.014;-7.874;2024-03-17T01:46:02;99255.50;;;17.88;100.00
60705;BME280;46545;38.014;-7.874;2024-03-17T01:48:03;99255.78;;;17.87;100.00
60705;BME280;46545;38.014;-7.874;2024-03-17T01:50:09;99254.97;;;17.81;100.00
60705;BME280;46545;38.014;-7.874;2024-03-17T01:52:12;99256.88;;;17.81;100.00
60705;BME280;46545;38.014;-7.874;2024-03-17T01:54:13;99253.34;;;17.85;100.00
60705;BME280;46545;38.014;-7.874;2024-03-17T01:56:16;99247.38;;;17.83;100.00
60705;BME280;46545;38.014;-7.874;2024-03-17T01:58:19;99251.19;;;17.82;100.00
60705;BME280;46545;38.014;-7.874;2024-03-17T02:00:21;99243.88;;;17.78;100.00
60705;BME280;46545;38.014;-7.874;2024-03-17T02:02:21;99238.19;;;17.79;100.00
60705;BME280;46545;38.014;-7.874;2024-03-17T02:04:22;99238.44;;;17.83;100.00
60705;BME280;46545;38.014;-7.874;2024-03-17T02:06:23;99238.69;;;17.81;100.00
60705;BME280;46545;38.014;-7.874;2024-03-17T02:08:25;99242.00;;;17.78;100.00
60705;BME280;46545;38.014;-7.874;2024-03-17T02:10:25;99235.19;;;17.81;100.00
60705;BME280;46545;38.014;-7.874;2024-03-17T02:12:26;99229.28;;;17.73;100.00
60705;BME280;46545;38.014;-7.874;2024-03-17T02:14:27;99234.47;;;17.70;100.00
60705;BME280;46545;38.014;-7.874;2024-03-17T02:16:28;99232.03;;;17.68;100.00
60705;BME280;46545;38.014;-7.874;2024-03-17T02:18:28;99225.31;;;17.61;100.00
60705;BME280;46545;38.014;-7.874;2024-03-17T02:20:29;99224.00;;;17.58;100.00
60705;BME280;46545;38.014;-7.874;2024-03-17T02:22:48;99220.50;;;17.52;100.00
60705;BME280;46545;38.014;-7.874;2024-03-17T02:24:49;99228.97;;;17.46;100.00
60705;BME280;46545;38.014;-7.874;2024-03-17T02:26:49;99218.13;;;17.46;100.00
60705;BME280;46545;38.014;-7.874;2024-03-17T02:28:50;99223.78;;;17.49;100.00
60705;BME280;46545;38.014;-7.874;2024-03-17T02:30:51;99226.03;;;17.37;100.00
60705;BME280;46545;38.014;-7.874;2024-03-17T02:32:52;99222.84;;;17.30;100.00
60705;BME280;46545;38.014;-7.874;2024-03-17T02:34:53;99223.16;;;17.23;100.00
60705;BME280;46545;38.014;-7.874;2024-03-17T02:36:55;99214.78;;;17.20;100.00
60705;BME280;46545;38.014;-7.874;2024-03-17T02:38:55;99213.91;;;17.29;100.00
60705;BME280;46545;38.014;-7.874;2024-03-17T02:41:15;99200.72;;;17.18;100.00
60705;BME280;46545;38.014;-7.874;2024-03-17T02:43:16;99207.88;;;17.03;100.00
60705;BME280;46545;38.014;-7.874;2024-03-17T02:45:16;99201.97;;;16.91;100.00
60705;BME280;46545;38.014;-7.874;2024-03-17T02:47:17;99202.25;;;16.89;100.00
60705;BME280;46545;38.014;-7.874;2024-03-17T02:49:18;99195.97;;;16.99;100.00
60705;BME280;46545;38.014;-7.874;2024-03-17T02:51:20;99192.22;;;16.90;100.00
60705;BME280;46545;38.014;-7.874;2024-03-17T02:53:22;99189.84;;;16.73;100.00
60705;BME280;46545;38.014;-7.874;2024-03-17T02:55:23;99178.22;;;16.72;100.00
60705;BME280;46545;38.014;-7.874;2024-03-17T02:57:25;99178.00;;;16.59;100.00
60705;BME280;46545;38.014;-7.874;2024-03-17T02:59:30;99185.31;;;16.58;100.00
60705;BME280;46545;38.014;-7.874;2024-03-17T03:01:31;99182.13;;;16.46;100.00
60705;BME280;46545;38.014;-7.874;2024-03-17T03:03:32;99185.38;;;16.43;100.00
60705;BME280;46545;38.014;-7.874;2024-03-17T03:05:33;99182.44;;;16.39;100.00
60705;BME280;46545;38.014;-7.874;2024-03-17T03:07:34;99180.81;;;16.38;100.00
60705;BME280;46545;38.014;-7.874;2024-03-17T03:09:34;99175.13;;;16.40;100.00
60705;BME280;46545;38.014;-7.874;2024-03-17T03:11:35;99169.72;;;16.40;100.00
60705;BME280;46545;38.014;-7.874;2024-03-17T03:13:40;99174.56;;;16.43;100.00
60705;BME280;46545;38.014;-7.874;2024-03-17T03:15:40;99175.09;;;16.45;100.00
60705;BME280;46545;38.014;-7.874;2024-03-17T03:17:41;99174.59;;;16.38;100.00
60705;BME280;46545;38.014;-7.874;2024-03-17T03:19:42;99169.72;;;16.40;100.00
60705;BME280;46545;38.014;-7.874;2024-03-17T03:21:42;99170.03;;;16.33;100.00
60705;BME280;46545;38.014;-7.874;2024-03-17T03:23:44;99171.34;;;16.36;100.00
60705;BME280;46545;38.014;-7.874;2024-03-17T03:25:45;99170.50;;;16.40;100.00
60705;BME280;46545;38.014;-7.874;2024-03-17T03:27:49;99174.34;;;16.29;100.00
60705;BME280;46545;38.014;-7.874;2024-03-17T03:29:50;99176.78;;;16.20;100.00
60705;BME280;46545;38.014;-7.874;2024-03-17T03:31:50;99170.31;;;16.16;100.00
60705;BME280;46545;38.014;-7.874;2024-03-17T03:33:51;99170.59;;;16.20;100.00
60705;BME280;46545;38.014;-7.874;2024-03-17T03:35:52;99172.50;;;16.14;100.00
60705;BME280;46545;38.014;-7.874;2024-03-17T03:37:52;99174.66;;;16.17;100.00
60705;BME280;46545;38.014;-7.874;2024-03-17T03:39:53;99174.34;;;16.29;100.00
60705;BME280;46545;38.014;-7.874;2024-03-17T03:41:54;99165.16;;;16.30;100.00
60705;BME280;46545;38.014;-7.874;2024-03-17T03:43:55;99173.53;;;16.28;100.00
60705;BME280;46545;38.014;-7.874;2024-03-17T03:45:56;99170.56;;;16.35;100.00
60705;BME280;46545;38.014;-7.874;2024-03-17T03:47:56;99165.66;;;16.42;100.00
60705;BME280;46545;38.014;-7.874;2024-03-17T03:49:58;99165.59;;;16.47;100.00
60705;BME280;46545;38.014;-7.874;2024-03-17T03:51:59;99162.09;;;16.52;100.00
60705;BME280;46545;38.014;-7.874;2024-03-17T03:53:59;99162.84;;;16.63;100.00
60705;BME280;46545;38.014;-7.874;2024-03-17T03:56:02;99158.81;;;16.60;100.00
60705;BME280;46545;38.014;-7.874;2024-03-17T03:58:06;99157.97;;;16.60;100.00
60705;BME280;46545;38.014;-7.874;2024-03-17T04:00:07;99155.00;;;16.61;100.00
60705;BME280;46545;38.014;-7.874;2024-03-17T04:02:12;99163.91;;;16.62;100.00
60705;BME280;46545;38.014;-7.874;2024-03-17T04:04:13;99159.56;;;16.66;100.00
60705;BME280;46545;38.014;-7.874;2024-03-17T04:06:14;99157.97;;;16.60;100.00
60705;BME280;46545;38.014;-7.874;2024-03-17T04:08:16;99165.88;;;16.51;100.00
60705;BME280;46545;38.014;-7.874;2024-03-17T04:10:17;99162.09;;;16.52;100.00
60705;BME280;46545;38.014;-7.874;2024-03-17T04:12:21;99163.72;;;16.48;100.00
60705;BME280;46545;38.014;-7.874;2024-03-17T04:14:21;99157.22;;;16.49;100.00
60705;BME280;46545;38.014;-7.874;2024-03-17T04:16:22;99161.03;;;16.48;100.00
60705;BME280;46545;38.014;-7.874;2024-03-17T04:18:23;99155.56;;;16.58;100.00
60705;BME280;46545;38.014;-7.874;2024-03-17T04:20:30;99161.84;;;16.43;100.00
60705;BME280;46545;38.014;-7.874;2024-03-17T04:22:31;99156.47;;;16.38;100.00
60705;BME280;46545;38.014;-7.874;2024-03-17T04:24:32;99157.56;;;16.37;100.00
60705;BME280;46545;38.014;-7.874;2024-03-17T04:26:33;99150.53;;;16.36;100.00
60705;BME280;46545;38.014;-7.874;2024-03-17T04:28:33;99150.81;;;16.29;100.00
60705;BME280;46545;38.014;-7.874;2024-03-17T04:30:35;99150.59;;;16.21;100.00
60705;BME280;46545;38.014;-7.874;2024-03-17T04:32:36;99150.09;;;16.08;100.00
60705;BME280;46545;38.014;-7.874;2024-03-17T04:34:36;99143.63;;;15.99;100.00
60705;BME280;46545;38.014;-7.874;2024-03-17T04:36:38;99149.84;;;15.94;100.00
60705;BME280;46545;38.014;-7.874;2024-03-17T04:38:39;99146.06;;;16.01;100.00
60705;BME280;46545;38.014;-7.874;2024-03-17T04:40:40;99140.06;;;16.09;100.00
60705;BME280;46545;38.014;-7.874;2024-03-17T04:42:44;99141.22;;;15.92;100.00
60705;BME280;46545;38.014;-7.874;2024-03-17T04:44:45;99139.03;;;15.89;100.00
60705;BME280;46545;38.014;-7.874;2024-03-17T04:46:46;99138.78;;;15.91;100.00
60705;BME280;46545;38.014;-7.874;2024-03-17T04:48:46;99134.47;;;15.85;100.00
60705;BME280;46545;38.014;-7.874;2024-03-17T04:50:47;99133.38;;;15.81;100.00
60705;BME280;46545;38.014;-7.874;2024-03-17T04:52:48;99140.72;;;15.75;100.00
60705;BME280;46545;38.014;-7.874;2024-03-17T04:54:49;99134.22;;;15.71;100.00
60705;BME280;46545;38.014;-7.874;2024-03-17T04:56:50;99138.53;;;15.82;100.00
60705;BME280;46545;38.014;-7.874;2024-03-17T04:58:50;99136.66;;;15.78;100.00
60705;BME280;46545;38.014;-7.874;2024-03-17T05:00:51;99138.53;;;15.72;100.00
60705;BME280;46545;38.014;-7.874;2024-03-17T05:02:52;99137.47;;;15.73;100.00
60705;BME280;46545;38.014;-7.874;2024-03-17T05:04:54;99131.50;;;15.71;100.00
60705;BME280;46545;38.014;-7.874;2024-03-17T05:06:54;99139.06;;;15.69;100.00
60705;BME280;46545;38.014;-7.874;2024-03-17T05:08:55;99136.63;;;15.67;100.00
60705;BME280;46545;38.014;-7.874;2024-03-17T05:10:59;99130.13;;;15.68;100.00
60705;BME280;46545;38.014;-7.874;2024-03-17T05:13:00;99128.00;;;15.65;100.00
60705;BME280;46545;38.014;-7.874;2024-03-17T05:15:01;99126.91;;;15.66;100.00
60705;BME280;46545;38.014;-7.874;2024-03-17T05:17:02;99123.97;;;15.63;100.00
60705;BME280;46545;38.014;-7.874;2024-03-17T05:19:03;99128.53;;;15.67;100.00
60705;BME280;46545;38.014;-7.874;2024-03-17T05:21:05;99131.75;;;15.64;100.00
60705;BME280;46545;38.014;-7.874;2024-03-17T05:23:06;99134.19;;;15.66;100.00
60705;BME280;46545;38.014;-7.874;2024-03-17T05:25:06;99127.72;;;15.62;100.00
60705;BME280;46545;38.014;-7.874;2024-03-17T05:27:08;99121.78;;;15.65;100.00
60705;BME280;46545;38.014;-7.874;2024-03-17T05:29:09;99131.25;;;15.57;100.00
60705;BME280;46545;38.014;-7.874;2024-03-17T05:31:10;99130.44;;;15.57;100.00
60705;BME280;46545;38.014;-7.874;2024-03-17T05:33:15;99136.38;;;15.53;100.00
60705;BME280;46545;38.014;-7.874;2024-03-17T05:35:16;99128.28;;;15.53;100.00
60705;BME280;46545;38.014;-7.874;2024-03-17T05:37:16;99141.50;;;15.50;100.00
60705;BME280;46545;38.014;-7.874;2024-03-17T05:39:17;99139.63;;;15.56;100.00
60705;BME280;46545;38.014;-7.874;2024-03-17T05:41:18;99141.78;;;15.48;100.00
60705;BME280;46545;38.014;-7.874;2024-03-17T05:43:18;99127.19;;;15.49;100.00
60705;BME280;46545;38.014;-7.874;2024-03-17T05:45:19;99129.34;;;15.47;100.00
60705;BME280;46545;38.014;-7.874;2024-03-17T05:47:20;99125.06;;;15.46;100.00
60705;BME280;46545;38.014;-7.874;2024-03-17T05:49:21;99131.00;;;15.48;100.00
60705;BME280;46545;38.014;-7.874;2024-03-17T05:51:21;99127.72;;;15.62;100.00
60705;BME280;46545;38.014;-7.874;2024-03-17T05:53:23;99128.78;;;15.81;100.00
60705;BME280;46545;38.014;-7.874;2024-03-17T05:55:27;99137.19;;;15.80;100.00
60705;BME280;46545;38.014;-7.874;2024-03-17T05:57:27;99132.84;;;15.84;100.00
60705;BME280;46545;38.014;-7.874;2024-03-17T05:59:28;99126.09;;;15.81;100.00
60705;BME280;46545;38.014;-7.874;2024-03-17T06:01:29;99124.75;;;15.84;100.00
60705;BME280;46545;38.014;-7.874;2024-03-17T06:03:30;99125.53;;;15.79;100.00
60705;BME280;46545;38.014;-7.874;2024-03-17T06:05:38;99129.34;;;15.78;100.00
60705;BME280;46545;38.014;-7.874;2024-03-17T06:07:39;99131.75;;;15.64;100.00
60705;BME280;46545;38.014;-7.874;2024-03-17T06:09:39;99133.41;;;15.55;100.00
60705;BME280;46545;38.014;-7.874;2024-03-17T06:11:40;99139.63;;;15.56;100.00
60705;BME280;46545;38.014;-7.874;2024-03-17T06:13:40;99137.72;;;15.51;100.00
60705;BME280;46545;38.014;-7.874;2024-03-17T06:15:41;99136.66;;;15.42;100.00
60705;BME280;46545;38.014;-7.874;2024-03-17T06:17:42;99144.50;;;15.33;100.00
60705;BME280;46545;38.014;-7.874;2024-03-17T06:19:43;99145.56;;;15.27;100.00
60705;BME280;46545;38.014;-7.874;2024-03-17T06:21:44;99148.00;;;15.28;100.00
60705;BME280;46545;38.014;-7.874;2024-03-17T06:23:44;99144.19;;;15.19;100.00
60705;BME280;46545;38.014;-7.874;2024-03-17T06:25:48;99141.78;;;15.12;100.00
60705;BME280;46545;38.014;-7.874;2024-03-17T06:27:51;99144.22;;;15.09;100.00
60705;BME280;46545;38.014;-7.874;2024-03-17T06:29:52;99141.25;;;15.16;100.00
60705;BME280;46545;38.014;-7.874;2024-03-17T06:31:53;99143.66;;;15.17;100.00
60705;BME280;46545;38.014;-7.874;2024-03-17T06:33:53;99143.13;;;15.15;100.00
60705;BME280;46545;38.014;-7.874;2024-03-17T06:35:54;99136.66;;;15.26;100.00
60705;BME280;46545;38.014;-7.874;2024-03-17T06:37:59;99137.19;;;15.23;100.00
60705;BME280;46545;38.014;-7.874;2024-03-17T06:40:02;99137.47;;;15.27;100.00
60705;BME280;46545;38.014;-7.874;2024-03-17T06:42:03;99136.13;;;15.24;100.00
60705;BME280;46545;38.014;-7.874;2024-03-17T06:44:04;99134.78;;;15.22;100.00
60705;BME280;46545;38.014;-7.874;2024-03-17T06:46:07;99132.88;;;15.22;100.00
60705;BME280;46545;38.014;-7.874;2024-03-17T06:48:08;99127.75;;;15.26;100.00
60705;BME280;46545;38.014;-7.874;2024-03-17T06:50:09;99122.34;;;15.31;100.00
60705;BME280;46545;38.014;-7.874;2024-03-17T06:52:10;99127.22;;;15.39;100.00
60705;BME280;46545;38.014;-7.874;2024-03-17T06:54:11;99126.09;;;15.56;100.00
60705;BME280;46545;38.014;-7.874;2024-03-17T06:56:12;99118.00;;;15.66;100.00
60705;BME280;46545;38.014;-7.874;2024-03-17T06:58:12;99122.34;;;15.72;100.00
60705;BME280;46545;38.014;-7.874;2024-03-17T07:00:14;99127.97;;;15.70;100.00
60705;BME280;46545;38.014;-7.874;2024-03-17T07:02:16;99130.16;;;15.84;100.00
60705;BME280;46545;38.014;-7.874;2024-03-17T07:04:18;99133.94;;;15.83;100.00
60705;BME280;46545;38.014;-7.874;2024-03-17T07:06:21;99140.94;;;15.89;100.00
60705;BME280;46545;38.014;-7.874;2024-03-17T07:08:22;99135.53;;;15.89;100.00
60705;BME280;46545;38.014;-7.874;2024-03-17T07:10:23;99132.00;;;15.99;100.00
60705;BME280;46545;38.014;-7.874;2024-03-17T07:12:24;99135.25;;;16.01;100.00
60705;BME280;46545;38.014;-7.874;2024-03-17T07:14:24;99131.69;;;16.05;100.00
60705;BME280;46545;38.014;-7.874;2024-03-17T07:16:26;99143.28;;;16.16;100.00
60705;BME280;46545;38.014;-7.874;2024-03-17T07:18:28;99147.31;;;16.29;100.00
60705;BME280;46545;38.014;-7.874;2024-03-17T07:20:32;99150.75;;;16.45;100.00
60705;BME280;46545;38.014;-7.874;2024-03-17T07:22:33;99150.13;;;16.63;100.00
60705;BME280;46545;38.014;-7.874;2024-03-17T07:24:34;99151.66;;;16.80;100.00
60705;BME280;46545;38.014;-7.874;2024-03-17T07:26:34;99151.88;;;16.93;100.00
60705;BME280;46545;38.014;-7.874;2024-03-17T07:28:36;99154.13;;;17.21;100.00
60705;BME280;46545;38.014;-7.874;2024-03-17T07:30:47;99165.34;;;17.38;100.00
60705;BME280;46545;38.014;-7.874;2024-03-17T07:32:47;99164.97;;;17.55;100.00
60705;BME280;46545;38.014;-7.874;2024-03-17T07:34:48;99172.06;;;17.75;100.00
60705;BME280;46545;38.014;-7.874;2024-03-17T07:36:50;99174.25;;;18.31;100.00
60705;BME280;46545;38.014;-7.874;2024-03-17T07:38:51;99175.16;;;19.60;100.00
60705;BME280;46545;38.014;-7.874;2024-03-17T07:41:06;99171.19;;;21.86;84.78
60705;BME280;46545;38.014;-7.874;2024-03-17T07:43:07;99167.94;;;23.60;62.78
60705;BME280;46545;38.014;-7.874;2024-03-17T07:45:08;99166.31;;;23.76;59.44
60705;BME280;46545;38.014;-7.874;2024-03-17T07:47:09;99170.09;;;23.19;60.58
60705;BME280;46545;38.014;-7.874;2024-03-17T07:49:10;99176.16;;;22.72;61.44
60705;BME280;46545;38.014;-7.874;2024-03-17T07:51:14;99172.25;;;22.56;61.42
60705;BME280;46545;38.014;-7.874;2024-03-17T07:53:15;99173.47;;;23.07;61.51
60705;BME280;46545;38.014;-7.874;2024-03-17T07:55:16;99163.75;;;23.80;57.13
60705;BME280;46545;38.014;-7.874;2024-03-17T07:57:17;99170.53;;;24.21;54.48
60705;BME280;46545;38.014;-7.874;2024-03-17T07:59:17;99168.91;;;24.58;52.81
60705;BME280;46545;38.014;-7.874;2024-03-17T08:01:18;99163.38;;;25.09;51.20
60705;BME280;46545;38.014;-7.874;2024-03-17T08:03:19;99167.34;;;25.53;49.52
60705;BME280;46545;38.014;-7.874;2024-03-17T08:05:20;99164.31;;;26.25;48.17
60705;BME280;46545;38.014;-7.874;2024-03-17T08:07:20;99175.88;;;27.93;43.14
60705;BME280;46545;38.014;-7.874;2024-03-17T08:09:21;99172.47;;;29.18;40.47
60705;BME280;46545;38.014;-7.874;2024-03-17T08:11:23;99161.91;;;28.49;41.41
60705;BME280;46545;38.014;-7.874;2024-03-17T08:13:25;99167.94;;;28.39;41.37
60705;BME280;46545;38.014;-7.874;2024-03-17T08:15:25;99167.03;;;29.84;39.17
60705;BME280;46545;38.014;-7.874;2024-03-17T08:17:26;99172.88;;;30.02;38.27
60705;BME280;46545;38.014;-7.874;2024-03-17T08:19:27;99170.63;;;29.45;38.83
60705;BME280;46545;38.014;-7.874;2024-03-17T08:21:28;99172.91;;;28.85;39.52
60705;BME280;46545;38.014;-7.874;2024-03-17T08:23:30;99169.34;;;28.33;40.46
60705;BME280;46545;38.014;-7.874;2024-03-17T08:25:32;99178.38;;;27.13;42.74
60705;BME280;46545;38.014;-7.874;2024-03-17T08:27:32;99180.59;;;25.85;45.84
60705;BME280;46545;38.014;-7.874;2024-03-17T08:29:34;99187.16;;;24.75;48.71
60705;BME280;46545;38.014;-7.874;2024-03-17T08:31:35;99188.56;;;24.60;50.56
60705;BME280;46545;38.014;-7.874;2024-03-17T08:33:37;99184.19;;;24.89;49.62
60705;BME280;46545;38.014;-7.874;2024-03-17T08:35:37;99184.00;;;25.48;48.11
60705;BME280;46545;38.014;-7.874;2024-03-17T08:37:38;99188.41;;;25.95;47.34
60705;BME280;46545;38.014;-7.874;2024-03-17T08:39:39;99187.31;;;25.87;47.79
60705;BME280;46545;38.014;-7.874;2024-03-17T08:41:39;99185.25;;;25.72;47.77
60705;BME280;46545;38.014;-7.874;2024-03-17T08:43:40;99183.28;;;26.18;47.04
60705;BME280;46545;38.014;-7.874;2024-03-17T08:45:43;99186.03;;;26.55;46.13
60705;BME280;46545;38.014;-7.874;2024-03-17T08:47:44;99197.34;;;27.43;44.31
60705;BME280;46545;38.014;-7.874;2024-03-17T08:49:44;99189.13;;;29.64;40.77
60705;BME280;46545;38.014;-7.874;2024-03-17T08:51:45;99193.19;;;31.91;36.15
60705;BME280;46545;38.014;-7.874;2024-03-17T08:53:46;99191.41;;;33.31;33.04
60705;BME280;46545;38.014;-7.874;2024-03-17T08:55:46;99196.75;;;34.40;31.07
60705;BME280;46545;38.014;-7.874;2024-03-17T08:57:47;99194.25;;;35.03;30.06
60705;BME280;46545;38.014;-7.874;2024-03-17T08:59:48;99194.75;;;34.48;29.84
60705;BME280;46545;38.014;-7.874;2024-03-17T09:01:48;99196.38;;;34.38;29.58
60705;BME280;46545;38.014;-7.874;2024-03-17T09:03:49;99194.03;;;36.13;27.67
60705;BME280;46545;38.014;-7.874;2024-03-17T09:05:52;99209.47;;;37.11;25.15
60705;BME280;46545;38.014;-7.874;2024-03-17T09:07:55;99202.22;;;36.38;25.64
60705;BME280;46545;38.014;-7.874;2024-03-17T09:09:55;99196.59;;;35.12;26.01
60705;BME280;46545;38.014;-7.874;2024-03-17T09:11:56;99201.00;;;33.51;28.06
60705;BME280;46545;38.014;-7.874;2024-03-17T09:13:56;99198.13;;;31.67;30.57
60705;BME280;46545;38.014;-7.874;2024-03-17T09:16:00;99193.22;;;31.23;31.64
60705;BME280;46545;38.014;-7.874;2024-03-17T09:18:01;99200.75;;;31.97;30.99
60705;BME280;46545;38.014;-7.874;2024-03-17T09:20:04;99207.19;;;32.05;30.33
60705;BME280;46545;38.014;-7.874;2024-03-17T09:22:04;99206.13;;;32.21;30.12
60705;BME280;46545;38.014;-7.874;2024-03-17T09:24:09;99197.31;;;31.03;32.35
60705;BME280;46545;38.014;-7.874;2024-03-17T09:26:10;99212.13;;;29.29;34.82
60705;BME280;46545;38.014;-7.874;2024-03-17T09:28:18;99214.53;;;27.84;37.44
60705;BME280;46545;38.014;-7.874;2024-03-17T09:30:18;99210.53;;;26.48;40.16
60705;BME280;46545;38.014;-7.874;2024-03-17T09:32:20;99205.72;;;25.41;43.09
60705;BME280;46545;38.014;-7.874;2024-03-17T09:34:20;99214.72;;;24.79;44.46
60705;BME280;46545;38.014;-7.874;2024-03-17T09:36:21;99213.41;;;24.46;46.04
60705;BME280;46545;38.014;-7.874;2024-03-17T09:38:22;99206.69;;;24.35;46.63
60705;BME280;46545;38.014;-7.874;2024-03-17T09:40:23;99207.81;;;24.34;46.69
60705;BME280;46545;38.014;-7.874;2024-03-17T09:42:24;99204.81;;;24.18;45.18
60705;BME280;46545;38.014;-7.874;2024-03-17T09:44:25;99201.88;;;23.85;46.75
60705;BME280;46545;38.014;-7.874;2024-03-17T09:46:27;99213.44;;;23.73;47.75
60705;BME280;46545;38.014;-7.874;2024-03-17T09:48:29;99208.03;;;23.55;48.53
60705;BME280;46545;38.014;-7.874;2024-03-17T09:50:31;99217.16;;;23.68;49.24
60705;BME280;46545;38.014;-7.874;2024-03-17T09:52:34;99222.81;;;23.63;49.77
60705;BME280;46545;38.014;-7.874;2024-03-17T09:54:35;99219.91;;;23.77;49.85
60705;BME280;46545;38.014;-7.874;2024-03-17T09:56:35;99221.69;;;23.82;49.45
60705;BME280;46545;38.014;-7.874;2024-03-17T09:58:36;99224.09;;;23.83;49.82
60705;BME280;46545;38.014;-7.874;2024-03-17T10:00:37;99223.59;;;23.81;50.48
60705;BME280;46545;38.014;-7.874;2024-03-17T10:02:44;99230.25;;;23.63;51.22
60705;BME280;46545;38.014;-7.874;2024-03-17T10:04:45;99219.59;;;23.70;51.67
60705;BME280;46545;38.014;-7.874;2024-03-17T10:06:46;99222.50;;;23.56;51.86
60705;BME280;46545;38.014;-7.874;2024-03-17T10:08:50;99213.97;;;23.57;53.04
60705;BME280;46545;38.014;-7.874;2024-03-17T10:10:54;99213.69;;;23.50;52.22
60705;BME280;46545;38.014;-7.874;2024-03-17T10:12:55;99205.47;;;23.33;53.53
60705;BME280;46545;38.014;-7.874;2024-03-17T10:14:59;99207.09;;;23.34;53.88
60705;BME280;46545;38.014;-7.874;2024-03-17T10:17:00;99208.38;;;23.36;51.43
60705;BME280;46545;38.014;-7.874;2024-03-17T10:19:22;99215.28;;;23.51;50.25
60705;BME280;46545;38.014;-7.874;2024-03-17T10:21:26;99221.72;;;23.47;46.34
60705;BME280;46545;38.014;-7.874;2024-03-17T10:23:30;99218.47;;;23.53;46.20
60705;BME280;46545;38.014;-7.874;2024-03-17T10:25:33;99219.63;;;23.52;46.13
60705;BME280;46545;38.014;-7.874;2024-03-17T10:27:34;99218.47;;;23.53;47.66
60705;BME280;46545;38.014;-7.874;2024-03-17T10:29:35;99218.00;;;23.77;46.86